createdAt,value
2023-04-03T00:00:42.625Z,97.3298
2023-04-03T00:01:44.862Z,97.0821
2023-04-03T00:02:47.120Z,96.8207
2023-04-03T00:03:49.415Z,96.6693
2023-04-03T00:04:51.608Z,96.4440
2023-04-03T00:05:53.824Z,96.0792
2023-04-03T00:06:56.026Z,95.8146
2023-04-03T00:07:58.250Z,95.6431
2023-04-03T00:09:00.469Z,95.3463
2023-04-03T00:10:02.677Z,95.1728
2023-04-03T00:11:04.892Z,95.1052
2023-04-03T00:12:07.061Z,95.0406
2023-04-03T00:13:09.264Z,95.0966
2023-04-03T00:14:11.482Z,95.2525
2023-04-03T00:15:13.800Z,95.3561
2023-04-03T00:16:16.031Z,95.3658
2023-04-03T00:17:18.221Z,95.3451
2023-04-03T00:18:20.414Z,95.4626
2023-04-03T00:19:22.652Z,95.6277
2023-04-03T00:20:24.943Z,95.5740
2023-04-03T00:21:27.132Z,95.4246
2023-04-03T00:22:29.335Z,95.2444
2023-04-03T00:23:31.540Z,95.0563
2023-04-03T00:24:33.761Z,94.9197
2023-04-03T00:25:35.975Z,94.7699
2023-04-03T00:26:38.165Z,94.4698
2023-04-03T00:27:40.385Z,94.2474
2023-04-03T00:28:42.602Z,94.1901
2023-04-03T00:29:44.802Z,94.1833
2023-04-03T00:30:47.024Z,93.9942
2023-04-03T00:31:49.199Z,94.1489
2023-04-03T00:32:51.445Z,94.3982
2023-04-03T00:33:53.581Z,94.6320
2023-04-03T00:34:55.791Z,94.8128
2023-04-03T00:35:58.062Z,94.7901
2023-04-03T00:37:00.382Z,94.8257
2023-04-03T00:38:02.650Z,94.7925
2023-04-03T00:39:04.838Z,94.8288
2023-04-03T00:40:07.046Z,94.8739
2023-04-03T00:41:09.272Z,94.7821
2023-04-03T00:42:11.479Z,94.6935
2023-04-03T00:43:13.714Z,94.5971
2023-04-03T00:44:15.902Z,94.5153
2023-04-03T00:45:18.161Z,94.5241
2023-04-03T00:46:20.367Z,94.5201
2023-04-03T00:47:22.649Z,94.4990
2023-04-03T00:48:24.875Z,94.5922
2023-04-03T00:49:27.109Z,94.8060
2023-04-03T00:50:29.337Z,94.8855
2023-04-03T00:51:31.553Z,94.6572
2023-04-03T00:52:32.160Z,94.5573
2023-04-03T00:53:34.378Z,94.3459
2023-04-03T00:54:36.584Z,93.7163
2023-04-03T00:55:38.964Z,93.2839
2023-04-03T00:56:41.208Z,93.1378
2023-04-03T00:57:43.397Z,93.0524
2023-04-03T00:58:45.609Z,92.9129
2023-04-03T00:59:47.846Z,93.0632
2023-04-03T01:00:50.232Z,93.0262
2023-04-03T01:01:52.487Z,92.9817
2023-04-03T01:02:54.754Z,93.0939
2023-04-03T01:03:57.012Z,93.1835
2023-04-03T01:04:59.204Z,93.0048
2023-04-03T01:06:01.471Z,92.8183
2023-04-03T01:07:03.700Z,92.8248
2023-04-03T01:08:05.971Z,93.0449
2023-04-03T01:09:08.216Z,93.0721
2023-04-03T01:10:10.431Z,93.1441
2023-04-03T01:11:12.690Z,93.2988
2023-04-03T01:12:14.905Z,93.1628
2023-04-03T01:13:17.144Z,93.0412
2023-04-03T01:14:19.390Z,93.2833
2023-04-03T01:15:21.607Z,93.2641
2023-04-03T01:16:23.880Z,93.0620
2023-04-03T01:17:26.150Z,93.2136
2023-04-03T01:18:28.362Z,93.4475
2023-04-03T01:19:30.575Z,93.4579
2023-04-03T01:20:32.814Z,93.6651
2023-04-03T01:21:35.050Z,93.9024
2023-04-03T01:22:37.270Z,93.7778
2023-04-03T01:23:39.482Z,93.6345
2023-04-03T01:24:41.640Z,93.6850
2023-04-03T01:25:43.880Z,93.6025
2023-04-03T01:26:46.143Z,93.5398
2023-04-03T01:27:48.340Z,93.6123
2023-04-03T01:28:50.546Z,93.5690
2023-04-03T01:29:52.750Z,93.5568
2023-04-03T01:30:54.940Z,93.5559
2023-04-03T01:31:57.225Z,93.3909
2023-04-03T01:32:59.462Z,93.2142
2023-04-03T01:34:01.671Z,93.2177
2023-04-03T01:35:03.863Z,93.1867
2023-04-03T01:36:06.222Z,93.3271
2023-04-03T01:37:08.454Z,93.2033
2023-04-03T01:38:10.884Z,92.8313
2023-04-03T01:39:13.086Z,92.6811
2023-04-03T01:40:15.277Z,92.7788
2023-04-03T01:41:17.483Z,92.8616
2023-04-03T01:42:19.922Z,93.0609
2023-04-03T01:43:22.099Z,93.1417
2023-04-03T01:44:24.295Z,93.2375
2023-04-03T01:45:26.523Z,93.1710
2023-04-03T01:46:28.698Z,93.0953
2023-04-03T01:47:31.258Z,93.1822
2023-04-03T01:48:33.414Z,93.2942
2023-04-03T01:49:35.616Z,93.3336
2023-04-03T01:50:38.185Z,93.5245
2023-04-03T01:51:40.627Z,93.6660
2023-04-03T01:52:42.863Z,93.6981
2023-04-03T01:53:45.078Z,93.6837
2023-04-03T01:54:47.299Z,93.7235
2023-04-03T01:55:49.551Z,93.5731
2023-04-03T01:56:51.784Z,93.4981
2023-04-03T01:57:54.011Z,93.6501
2023-04-03T01:58:56.230Z,93.7496
2023-04-03T01:59:58.486Z,93.6761
2023-04-03T02:01:00.695Z,93.4112
2023-04-03T02:02:02.892Z,93.3657
2023-04-03T02:03:05.214Z,93.2386
2023-04-03T02:04:07.452Z,93.3217
2023-04-03T02:08:06.416Z,93.4210
2023-04-03T02:08:41.370Z,94.1381
2023-04-03T02:09:43.680Z,94.1974
2023-04-03T06:22:44.362Z,94.2690
2023-04-03T06:23:46.698Z,74.2646
2023-04-03T06:24:49.357Z,74.4500
2023-04-03T06:25:51.779Z,74.2336
2023-04-03T06:29:36.482Z,74.2910
2023-04-03T06:30:57.228Z,74.1137
2023-04-03T06:38:53.567Z,73.7915
2023-04-03T06:39:55.940Z,73.7742
2023-04-03T06:41:00.451Z,73.7589
2023-04-03T06:42:00.555Z,73.6247
2023-04-03T06:43:02.870Z,73.4590
2023-04-03T06:44:05.157Z,73.2813
2023-04-03T06:45:07.380Z,72.9218
2023-04-03T06:46:08.204Z,72.8955
2023-04-03T06:47:11.082Z,72.7899
2023-04-03T06:48:13.386Z,72.6442
2023-04-03T06:49:15.614Z,72.6554
2023-04-03T06:50:20.859Z,72.3562
2023-04-03T06:55:02.800Z,72.2482
2023-04-03T06:55:58.536Z,72.0099
2023-04-03T06:57:01.653Z,71.8791
2023-04-03T06:58:03.859Z,71.9933
2023-04-03T06:59:06.267Z,72.2093
2023-04-03T07:00:08.925Z,71.9707
2023-04-03T07:01:11.195Z,71.5819
2023-04-03T07:02:13.592Z,71.4260
2023-04-03T07:09:45.205Z,71.8753
2023-04-03T07:10:44.624Z,71.0078
2023-04-03T07:11:47.708Z,70.7613
2023-04-03T07:12:50.000Z,70.9931
2023-04-03T07:21:12.085Z,71.1510
2023-04-03T07:22:14.386Z,70.9990
2023-04-03T07:23:17.386Z,71.0450
2023-04-03T07:24:19.643Z,71.3693
2023-04-03T07:25:19.966Z,71.3292
2023-04-03T07:26:22.255Z,71.5746
2023-04-03T07:27:24.532Z,71.0694
2023-04-03T07:33:46.173Z,69.9962
2023-04-03T07:34:46.914Z,70.0223
2023-04-03T07:44:55.626Z,69.9256
2023-04-03T07:45:57.851Z,68.8585
2023-04-03T07:47:00.126Z,68.6848
2023-04-03T07:49:45.716Z,68.8433
2023-04-03T07:50:49.420Z,68.1605
2023-04-03T07:51:48.465Z,68.1250
2023-04-03T07:58:59.749Z,68.0987
2023-04-03T08:00:02.011Z,66.8190
2023-04-03T08:01:04.632Z,66.3702
2023-04-03T08:02:06.908Z,67.2484
2023-04-03T08:03:18.221Z,67.1536
2023-04-03T08:04:10.613Z,67.0679
2023-04-03T08:05:12.936Z,66.2638
2023-04-03T08:06:16.370Z,66.0743
2023-04-03T08:07:16.874Z,65.9910
2023-04-03T08:08:20.858Z,65.8144
2023-04-03T08:09:20.306Z,66.7935
2023-04-03T08:10:22.586Z,66.9748
2023-04-03T08:11:29.897Z,66.9511
2023-04-03T08:12:28.232Z,67.1493
2023-04-03T08:13:38.858Z,67.0675
2023-04-03T08:14:41.885Z,67.1625
2023-04-03T08:15:44.758Z,66.8294
2023-04-03T08:16:59.536Z,67.2360
2023-04-03T08:26:04.735Z,67.0470
2023-04-03T08:27:03.860Z,65.1936
2023-04-03T08:31:08.723Z,64.8950
2023-04-03T08:32:11.165Z,65.0717
2023-04-03T08:33:13.488Z,65.2940
2023-04-03T08:34:16.580Z,65.2391
2023-04-03T08:35:17.133Z,65.2829
2023-04-03T08:36:27.920Z,65.3864
2023-04-03T08:37:27.956Z,63.9667
2023-04-03T08:38:27.933Z,64.8992
2023-04-03T08:39:30.198Z,65.3524
2023-04-03T08:40:41.066Z,64.9238
2023-04-03T08:45:04.520Z,65.8521
2023-04-03T08:46:06.800Z,65.8635
2023-04-03T08:47:09.240Z,65.3563
2023-04-03T08:48:11.501Z,65.8657
2023-04-03T08:49:14.061Z,65.5135
2023-04-03T08:50:16.414Z,65.6180
2023-04-03T08:51:18.616Z,65.7701
2023-04-03T08:52:20.861Z,66.0287
2023-04-03T08:53:23.162Z,66.3857
2023-04-03T08:54:25.378Z,66.7594
2023-04-03T08:55:27.760Z,65.8549
2023-04-03T08:56:30.120Z,65.1180
2023-04-03T08:57:32.605Z,64.9120
2023-04-03T08:58:34.842Z,65.7572
2023-04-03T09:01:03.170Z,66.1924
2023-04-03T09:02:06.964Z,65.0515
2023-04-03T09:03:16.818Z,65.6352
2023-04-03T09:08:07.985Z,65.1705
2023-04-03T09:09:19.445Z,65.3162
2023-04-03T09:11:54.795Z,65.3723
2023-04-03T09:15:11.845Z,66.0227
2023-04-03T09:16:15.408Z,65.2839
2023-04-03T09:17:16.027Z,64.8357
2023-04-03T09:18:14.998Z,64.6482
2023-04-03T09:19:17.545Z,64.9022
2023-04-03T09:21:46.045Z,65.6552
2023-04-03T09:22:52.237Z,65.2332
2023-04-03T09:26:51.912Z,65.5311
2023-04-03T09:27:55.065Z,65.2014
2023-04-03T09:28:56.432Z,65.2851
2023-04-03T09:30:00.557Z,65.0164
2023-04-03T09:31:00.642Z,65.0357
2023-04-03T09:32:01.097Z,64.7807
2023-04-03T09:33:03.415Z,64.2393
2023-04-03T09:34:05.884Z,65.0265
2023-04-03T09:35:19.173Z,65.1839
2023-04-03T09:44:24.375Z,64.7386
2023-04-03T10:02:08.467Z,64.6464
2023-04-03T10:03:11.447Z,63.9187
2023-04-03T10:04:16.099Z,64.2492
2023-04-03T10:07:27.290Z,65.0706
2023-04-03T10:08:16.919Z,65.7128
2023-04-03T10:09:19.159Z,65.7994
2023-04-03T10:10:21.560Z,66.1918
2023-04-03T10:11:23.790Z,66.3964
2023-04-03T10:26:43.034Z,66.0506
2023-04-03T10:29:51.476Z,64.8966
2023-04-03T10:30:46.970Z,65.0213
2023-04-03T10:31:49.443Z,65.1033
2023-04-03T10:32:53.257Z,65.4594
2023-04-03T10:33:52.044Z,65.1626
2023-04-03T10:35:04.597Z,64.7103
2023-04-03T10:39:56.468Z,65.0100
2023-04-03T10:46:13.305Z,63.4684
2023-04-03T10:46:51.583Z,63.9286
2023-04-03T10:47:53.932Z,64.0792
2023-04-03T10:48:56.836Z,64.0226
2023-04-03T10:49:59.898Z,64.1024
2023-04-03T10:50:59.101Z,64.6636
2023-04-03T10:52:01.464Z,65.0337
2023-04-03T11:02:21.464Z,67.7256
2023-04-03T11:05:03.753Z,67.7768
2023-04-03T11:15:21.954Z,64.9989
2023-04-03T11:16:28.336Z,66.3534
2023-04-03T11:17:27.361Z,66.2260
2023-04-03T11:18:29.567Z,65.8275
2023-04-03T11:19:31.887Z,66.2337
2023-04-03T11:20:34.562Z,66.2619
2023-04-03T11:21:36.876Z,65.7559
2023-04-03T11:22:39.291Z,65.7758
2023-04-03T11:24:53.574Z,65.5988
2023-04-03T11:26:15.740Z,65.1101
2023-04-03T11:27:07.797Z,66.4479
2023-04-03T11:29:15.708Z,67.0237
2023-04-03T11:30:13.963Z,67.6808
2023-04-03T11:31:17.474Z,67.1283
2023-04-03T11:32:16.512Z,66.7155
2023-04-03T11:34:05.523Z,66.7056
2023-04-03T11:34:47.173Z,67.2348
2023-04-03T11:35:50.337Z,66.4212
2023-04-03T11:36:52.693Z,66.4406
2023-04-03T11:37:53.204Z,66.6545
2023-04-03T11:38:55.854Z,65.9513
2023-04-03T11:39:58.079Z,66.2223
2023-04-03T11:41:00.413Z,66.0743
2023-04-03T11:42:40.532Z,66.4101
2023-04-03T11:43:34.542Z,67.2609
2023-04-03T11:44:36.798Z,67.3378
2023-04-03T11:45:39.202Z,67.4789
2023-04-03T11:48:13.011Z,67.3973
2023-04-03T11:49:06.622Z,67.9014
2023-04-03T11:50:09.791Z,68.0273
2023-04-03T11:51:11.960Z,68.0669
2023-04-03T11:52:14.186Z,68.0835
2023-04-03T11:56:31.121Z,67.8571
2023-04-03T11:57:55.246Z,68.2557
2023-04-03T11:58:47.659Z,68.3512
2023-04-03T11:59:50.052Z,68.1647
2023-04-03T12:00:52.509Z,68.4378
2023-04-03T12:01:54.973Z,68.0511
2023-04-03T12:02:57.328Z,67.9448
2023-04-03T12:04:00.843Z,67.7218
2023-04-03T12:05:03.130Z,68.0557
2023-04-03T12:06:05.362Z,67.9285
2023-04-03T12:07:07.591Z,67.5775
2023-04-03T12:08:09.800Z,67.5274
2023-04-03T12:09:12.036Z,67.3183
2023-04-03T12:10:21.413Z,66.7302
2023-04-03T12:11:15.543Z,65.8402
2023-04-03T12:12:17.823Z,66.5543
2023-04-03T12:13:22.988Z,66.6730
2023-04-03T12:14:26.941Z,66.9842
2023-04-03T12:15:29.716Z,66.7882
2023-04-03T12:16:32.179Z,67.1936
2023-04-03T12:17:34.446Z,67.5333
2023-04-03T12:18:37.630Z,67.6249
2023-04-03T12:19:42.494Z,67.4056
2023-04-03T12:20:37.963Z,67.4271
2023-04-03T12:21:40.209Z,67.3592
2023-04-03T12:22:42.675Z,67.4816
2023-04-03T12:23:44.894Z,67.4742
2023-04-03T12:24:47.153Z,66.9947
2023-04-03T12:25:49.446Z,66.7435
2023-04-03T12:26:52.195Z,66.7640
2023-04-03T12:27:54.488Z,67.3937
2023-04-03T12:28:56.788Z,67.5236
2023-04-03T12:29:59.076Z,67.3053
2023-04-03T12:31:01.328Z,67.4655
2023-04-03T12:32:03.571Z,67.4394
2023-04-03T12:33:12.430Z,67.2906
2023-04-03T12:34:07.164Z,67.0204
2023-04-03T12:35:09.439Z,67.1223
2023-04-03T12:36:11.693Z,66.9489
2023-04-03T12:37:14.052Z,66.1665
2023-04-03T12:38:16.337Z,66.1585
2023-04-03T12:39:18.631Z,65.9789
2023-04-03T12:40:20.920Z,65.8105
2023-04-03T12:41:23.684Z,64.9293
2023-04-03T12:42:25.888Z,65.3318
2023-04-03T12:43:28.176Z,65.7641
2023-04-03T12:44:30.514Z,65.9908
2023-04-03T12:45:33.249Z,65.9748
2023-04-03T12:46:35.596Z,65.9023
2023-04-03T12:47:37.855Z,65.8506
2023-04-03T12:48:40.116Z,65.5856
2023-04-03T12:49:42.369Z,66.2344
2023-04-03T12:50:45.533Z,66.6551
2023-04-03T12:51:47.704Z,66.4269
2023-04-03T12:52:50.012Z,66.7944
2023-04-03T12:53:52.268Z,66.8005
2023-04-03T12:54:54.560Z,66.9097
2023-04-03T12:55:56.837Z,67.0329
2023-04-03T12:56:59.434Z,67.2184
2023-04-03T12:58:01.659Z,66.2774
2023-04-03T12:59:04.133Z,66.2988
2023-04-03T13:00:06.360Z,65.9243
2023-04-03T13:01:09.369Z,65.1174
2023-04-03T13:02:10.290Z,64.2748
2023-04-03T13:03:12.653Z,63.9161
2023-04-03T13:04:14.988Z,64.0145
2023-04-03T13:05:17.311Z,63.5209
2023-04-03T13:06:19.517Z,62.2008
2023-04-03T13:07:22.578Z,62.5617
2023-04-03T13:08:24.908Z,62.7549
2023-04-03T13:09:28.107Z,62.4080
2023-04-03T13:10:30.392Z,62.0155
2023-04-03T13:11:32.643Z,61.4761
2023-04-03T13:12:39.222Z,61.4943
2023-04-03T13:13:35.381Z,61.1122
2023-04-03T13:14:37.765Z,61.3341
2023-04-03T13:15:40.422Z,61.3382
2023-04-03T13:16:42.637Z,60.6700
2023-04-03T13:17:45.169Z,60.7286
2023-04-03T13:18:47.682Z,60.3366
2023-04-03T13:19:49.997Z,60.3055
2023-04-03T13:20:52.323Z,61.3468
2023-04-03T13:21:54.699Z,61.9330
2023-04-03T13:22:56.979Z,62.3989
2023-04-03T13:24:13.894Z,62.6591
2023-04-03T13:25:02.757Z,62.8341
2023-04-03T13:26:02.731Z,62.9276
2023-04-03T13:27:05.019Z,62.6616
2023-04-03T13:28:13.927Z,62.6119
2023-04-03T13:29:14.895Z,62.5163
2023-04-03T13:30:11.181Z,62.3392
2023-04-03T13:31:14.235Z,63.0934
2023-04-03T13:32:16.505Z,63.7142
2023-04-03T13:33:18.822Z,64.4458
2023-04-03T13:34:21.108Z,64.8432
2023-04-03T13:35:23.657Z,64.8687
2023-04-03T13:36:25.866Z,64.9271
2023-04-03T13:37:28.217Z,64.8077
2023-04-03T13:38:30.473Z,64.9810
2023-04-03T13:39:32.823Z,65.1805
2023-04-03T13:40:46.921Z,65.7528
2023-04-03T13:41:36.857Z,66.1324
2023-04-03T13:42:39.158Z,66.1286
2023-04-03T13:43:42.055Z,66.3001
2023-04-03T13:44:42.020Z,66.1464
2023-04-03T13:45:44.307Z,66.2504
2023-04-03T13:46:46.641Z,66.3441
2023-04-03T13:47:49.230Z,65.9867
2023-04-03T13:48:51.619Z,65.5244
2023-04-03T13:49:51.692Z,65.2127
2023-04-03T13:50:54.020Z,65.6355
2023-04-03T13:52:06.496Z,65.4846
2023-04-03T13:52:58.644Z,65.3330
2023-04-03T13:54:00.901Z,65.4739
2023-04-03T13:55:07.730Z,65.3993
2023-04-03T13:56:05.021Z,64.9921
2023-04-03T13:57:07.322Z,64.9016
2023-04-03T13:58:10.015Z,64.5064
2023-04-03T13:59:12.634Z,64.6259
2023-04-03T14:00:15.002Z,64.7225
2023-04-03T14:01:17.345Z,64.9488
2023-04-03T14:02:19.702Z,65.2761
2023-04-03T14:03:22.077Z,65.1530
2023-04-03T14:04:24.476Z,65.2777
2023-04-03T14:05:26.752Z,65.4175
2023-04-03T14:06:29.880Z,65.5803
2023-04-03T14:07:32.293Z,65.5274
2023-04-03T14:08:42.430Z,65.1449
2023-04-03T14:09:36.059Z,65.2473
2023-04-03T14:10:38.365Z,64.9469
2023-04-03T14:11:40.674Z,65.2238
2023-04-03T14:12:42.990Z,64.9160
2023-04-03T14:13:45.302Z,64.5096
2023-04-03T14:14:47.554Z,64.2741
2023-04-03T14:15:49.902Z,64.4265
2023-04-03T14:16:52.302Z,64.5228
2023-04-03T14:17:54.716Z,64.3568
2023-04-03T14:18:57.124Z,64.0181
2023-04-03T14:19:59.414Z,64.0414
2023-04-03T14:21:02.144Z,64.2446
2023-04-03T14:22:04.425Z,64.0414
2023-04-03T14:23:06.701Z,64.0291
2023-04-03T14:24:09.614Z,63.9373
2023-04-03T14:25:12.206Z,64.2464
2023-04-03T14:26:12.088Z,64.2896
2023-04-03T14:27:14.982Z,64.3040
2023-04-03T14:28:20.111Z,64.7081
2023-04-03T14:29:19.016Z,64.0645
2023-04-03T14:30:21.284Z,64.3355
2023-04-03T14:31:23.615Z,64.1894
2023-04-03T14:32:26.053Z,64.3567
2023-04-03T14:33:29.642Z,63.7249
2023-04-03T14:34:30.835Z,64.0071
2023-04-03T14:35:33.485Z,63.6710
2023-04-03T14:36:35.871Z,63.8218
2023-04-03T14:37:38.193Z,63.5110
2023-04-03T14:38:40.480Z,63.5979
2023-04-03T14:39:44.123Z,63.6345
2023-04-03T14:40:46.609Z,63.2679
2023-04-03T14:41:44.446Z,63.0923
2023-04-03T14:42:48.005Z,63.1631
2023-04-03T14:43:49.274Z,63.3217
2023-04-03T14:44:51.640Z,62.6952
2023-04-03T14:45:55.654Z,63.3514
2023-04-03T14:46:57.804Z,62.9362
2023-04-03T14:48:59.147Z,62.7740
2023-04-03T14:50:00.223Z,63.0371
2023-04-03T14:51:05.953Z,62.4526
2023-04-03T14:52:05.476Z,62.9033
2023-04-03T14:53:16.996Z,62.5714
2023-04-03T14:55:22.116Z,62.6646
2023-04-03T14:56:10.897Z,61.8927
2023-04-03T14:57:13.182Z,62.1995
2023-04-03T14:58:15.965Z,62.5207
2023-04-03T14:59:18.235Z,62.3267
2023-04-03T15:00:19.564Z,62.3932
2023-04-03T15:01:22.059Z,62.2555
2023-04-03T15:02:26.008Z,62.3130
2023-04-03T15:03:41.374Z,62.3332
2023-04-03T15:13:16.017Z,61.4095
2023-04-03T15:14:29.662Z,61.4282
2023-04-03T15:15:19.688Z,61.6120
2023-04-03T15:16:22.060Z,61.4200
2023-04-03T15:17:25.053Z,61.4385
2023-04-03T15:18:30.352Z,61.8250
2023-04-03T15:19:29.848Z,61.6621
2023-04-03T15:20:32.093Z,61.8908
2023-04-03T15:21:35.064Z,61.9665
2023-04-03T15:22:37.325Z,61.7751
2023-04-03T15:23:39.568Z,61.8830
2023-04-03T15:24:41.926Z,62.1679
2023-04-03T15:25:44.225Z,61.8240
2023-04-03T15:26:47.133Z,62.0263
2023-04-03T15:27:49.396Z,62.0468
2023-04-03T15:28:51.764Z,61.9801
2023-04-03T15:29:54.156Z,61.6125
2023-04-03T15:30:56.618Z,61.4883
2023-04-03T15:31:58.992Z,61.5837
2023-04-03T15:33:01.339Z,61.8511
2023-04-03T15:34:03.613Z,61.9024
2023-04-03T15:35:05.970Z,62.1012
2023-04-03T15:36:17.611Z,61.9903
2023-04-03T15:37:09.666Z,61.8291
2023-04-03T15:38:12.116Z,62.2343
2023-04-03T15:39:14.392Z,62.0339
2023-04-03T15:40:16.703Z,62.3686
2023-04-03T15:41:19.009Z,62.3249
2023-04-03T15:42:21.329Z,62.6441
2023-04-03T15:43:23.649Z,62.5333
2023-04-03T15:44:25.922Z,62.8181
2023-04-03T15:45:28.291Z,62.9376
2023-04-03T15:46:30.649Z,62.8233
2023-04-03T15:47:33.325Z,62.9233
2023-04-03T15:48:35.853Z,62.8055
2023-04-03T15:49:38.177Z,62.5607
2023-04-03T15:50:40.748Z,62.4758
2023-04-03T15:51:43.108Z,62.6984
2023-04-03T15:52:45.473Z,62.5767
2023-04-03T15:53:47.833Z,62.5098
2023-04-03T15:54:50.149Z,62.5549
2023-04-03T15:55:52.406Z,62.6710
2023-04-03T15:56:54.753Z,62.7574
2023-04-03T15:57:57.046Z,63.0288
2023-04-03T15:58:59.366Z,62.8611
2023-04-03T16:00:01.830Z,62.8523
2023-04-03T16:01:05.433Z,62.8914
2023-04-03T16:02:04.306Z,63.0131
2023-04-03T16:03:06.724Z,62.9903
2023-04-03T16:04:09.082Z,62.8232
2023-04-03T16:05:11.385Z,62.7257
2023-04-03T16:06:13.708Z,63.0656
2023-04-03T16:07:16.025Z,62.7937
2023-04-03T16:08:22.026Z,62.9125
2023-04-03T16:09:20.943Z,62.9293
2023-04-03T16:10:23.249Z,62.8782
2023-04-03T16:11:25.585Z,62.7745
2023-04-03T16:12:29.040Z,62.7025
2023-04-03T16:13:27.904Z,62.7762
2023-04-03T16:14:30.519Z,63.0246
2023-04-03T16:15:39.347Z,63.1187
2023-04-03T16:16:41.559Z,63.1975
2023-04-03T16:17:43.885Z,62.9427
2023-04-03T16:18:46.165Z,63.2823
2023-04-03T16:19:48.441Z,63.3095
2023-04-03T16:20:50.755Z,63.4513
2023-04-03T16:21:52.998Z,63.2651
2023-04-03T16:22:55.345Z,63.1050
2023-04-03T16:23:57.566Z,63.0771
2023-04-03T16:24:59.930Z,63.3545
2023-04-03T16:26:02.600Z,62.8870
2023-04-03T16:27:04.856Z,63.1162
2023-04-03T16:28:07.103Z,63.4949
2023-04-03T16:29:09.821Z,62.8815
2023-04-03T16:30:12.358Z,62.4413
2023-04-03T16:31:14.659Z,62.3381
2023-04-03T16:32:17.112Z,62.4302
2023-04-03T16:33:19.430Z,62.5010
2023-04-03T16:34:21.731Z,62.2026
2023-04-03T16:35:24.244Z,62.0503
2023-04-03T16:36:26.532Z,61.7116
2023-04-03T16:37:29.208Z,61.7614
2023-04-03T16:38:29.311Z,61.7705
2023-04-03T16:39:31.677Z,61.9100
2023-04-03T16:40:34.419Z,62.0456
2023-04-03T16:41:36.715Z,61.9215
2023-04-03T16:42:38.968Z,61.8720
2023-04-03T16:44:43.365Z,61.7900
2023-04-03T16:45:45.708Z,61.9063
2023-04-03T16:46:48.541Z,61.9404
2023-04-03T16:47:51.172Z,62.1303
2023-04-03T16:48:53.488Z,61.9771
2023-04-03T16:49:55.833Z,61.7958
2023-04-03T16:50:58.132Z,61.9977
2023-04-03T16:52:00.520Z,61.9974
2023-04-03T16:53:04.378Z,62.1183
2023-04-03T16:54:04.535Z,62.1865
2023-04-03T16:55:05.206Z,62.2108
2023-04-03T16:56:07.617Z,62.1142
2023-04-03T16:57:10.081Z,62.1820
2023-04-03T16:58:10.871Z,61.9409
2023-04-03T16:59:13.182Z,61.9098
2023-04-03T17:00:15.769Z,62.0433
2023-04-03T17:01:18.033Z,62.0653
2023-04-03T17:02:19.986Z,62.0590
2023-04-03T17:03:23.583Z,62.2357
2023-04-03T17:04:25.003Z,62.1914
2023-04-03T17:05:27.451Z,62.3964
2023-04-03T17:06:29.756Z,62.5392
2023-04-03T17:07:31.993Z,62.6229
2023-04-03T17:08:34.706Z,62.8091
2023-04-03T17:09:37.154Z,62.9249
2023-04-03T17:10:39.420Z,62.8665
2023-04-03T17:11:42.326Z,63.1494
2023-04-03T17:12:41.893Z,63.0418
2023-04-03T17:13:44.160Z,63.2298
2023-04-03T17:14:46.436Z,63.3898
2023-04-03T17:15:48.937Z,63.6850
2023-04-03T17:16:51.242Z,63.8390
2023-04-03T17:17:53.555Z,64.1466
2023-04-03T17:18:55.868Z,64.2140
2023-04-03T17:19:58.242Z,64.2308
2023-04-03T17:21:00.563Z,64.1425
2023-04-03T17:22:02.990Z,64.3770
2023-04-03T17:23:05.309Z,64.5837
2023-04-03T17:24:07.575Z,64.6950
2023-04-03T17:25:10.004Z,64.7261
2023-04-03T17:26:12.280Z,64.8114
2023-04-03T17:27:14.570Z,64.9867
2023-04-03T17:28:16.933Z,64.9269
2023-04-03T17:29:19.218Z,65.0849
2023-04-03T17:30:21.653Z,65.1831
2023-04-03T17:31:24.134Z,65.2637
2023-04-03T17:32:24.541Z,65.4192
2023-04-03T17:33:26.938Z,65.4393
2023-04-03T17:34:29.227Z,65.3097
2023-04-03T17:35:32.095Z,65.3605
2023-04-03T17:36:34.850Z,65.4441
2023-04-03T17:37:37.500Z,65.5013
2023-04-03T17:38:39.756Z,65.6990
2023-04-03T17:39:42.046Z,65.8954
2023-04-03T17:40:45.210Z,65.7493
2023-04-03T17:41:47.500Z,65.7493
2023-04-03T17:42:49.916Z,65.9530
2023-04-03T17:43:52.183Z,65.7578
2023-04-03T17:44:55.614Z,65.7466
2023-04-03T17:45:57.860Z,65.5296
2023-04-03T17:47:00.136Z,65.6764
2023-04-03T17:48:02.806Z,65.7182
2023-04-03T17:49:05.058Z,65.4763
2023-04-03T17:50:07.388Z,65.6147
2023-04-03T17:51:10.005Z,65.7740
2023-04-03T17:52:12.319Z,65.8061
2023-04-03T17:53:14.587Z,65.8184
2023-04-03T17:54:16.899Z,65.9095
2023-04-03T17:55:19.235Z,65.9637
2023-04-03T17:56:22.196Z,65.9226
2023-04-03T17:57:24.476Z,65.8827
2023-04-03T17:58:26.778Z,65.9857
2023-04-03T17:59:29.101Z,66.0389
2023-04-03T18:00:31.691Z,66.2319
2023-04-03T18:01:34.006Z,66.3022
2023-04-03T18:02:36.358Z,66.2220
2023-04-03T18:03:38.728Z,66.3799
2023-04-03T18:04:41.021Z,66.2268
2023-04-03T18:05:43.761Z,66.3100
2023-04-03T18:06:46.140Z,66.4810
2023-04-03T18:07:48.500Z,66.4223
2023-04-03T18:08:50.770Z,66.6552
2023-04-03T18:09:53.536Z,66.6292
2023-04-03T18:10:55.946Z,66.6952
2023-04-03T18:11:58.221Z,66.5258
2023-04-03T18:13:00.520Z,66.3057
2023-04-03T18:14:02.787Z,66.6749
2023-04-03T18:15:03.414Z,66.8584
2023-04-03T18:16:05.716Z,66.3336
2023-04-03T18:17:07.976Z,66.5801
2023-04-03T18:18:10.287Z,66.5768
2023-04-03T18:19:22.832Z,66.4670
2023-04-03T18:20:13.900Z,66.8525
2023-04-03T18:21:16.352Z,66.8009
2023-04-03T18:22:18.689Z,66.6563
2023-04-03T18:23:21.022Z,66.8057
2023-04-03T18:24:23.273Z,66.8175
2023-04-03T18:25:25.898Z,66.8225
2023-04-03T18:26:28.234Z,66.5498
2023-04-03T18:27:30.494Z,66.5303
2023-04-03T18:28:32.740Z,66.4302
2023-04-03T18:29:35.103Z,66.2079
2023-04-03T18:30:37.611Z,65.8426
2023-04-03T18:31:40.241Z,65.8635
2023-04-03T18:32:42.563Z,65.7210
2023-04-03T18:33:44.924Z,65.8852
2023-04-03T18:34:47.221Z,65.8183
2023-04-03T18:35:49.510Z,65.8791
2023-04-03T18:36:53.034Z,65.7731
2023-04-03T18:37:53.539Z,65.6433
2023-04-03T18:38:55.844Z,65.5524
2023-04-03T18:39:58.161Z,65.5913
2023-04-03T18:41:01.135Z,65.5606
2023-04-03T18:42:03.391Z,65.6464
2023-04-03T18:43:05.671Z,65.6480
2023-04-03T18:44:08.005Z,65.6525
2023-04-03T18:45:10.559Z,65.6936
2023-04-03T18:46:12.847Z,65.7289
2023-04-03T18:47:15.146Z,65.5151
2023-04-03T18:48:17.431Z,65.8136
2023-04-03T18:49:19.755Z,65.8194
2023-04-03T18:50:22.735Z,65.7292
2023-04-03T18:51:25.023Z,65.6013
2023-04-03T18:52:27.312Z,65.5504
2023-04-03T18:53:29.913Z,65.6978
2023-04-03T18:54:32.190Z,65.8554
2023-04-03T18:55:34.476Z,65.9294
2023-04-03T18:56:36.756Z,65.9715
2023-04-03T18:57:39.093Z,65.9980
2023-04-03T18:58:41.361Z,66.0134
2023-04-03T18:59:44.344Z,66.1813
2023-04-03T19:00:46.676Z,65.9481
2023-04-03T19:01:48.913Z,66.0492
2023-04-03T19:02:51.442Z,65.9806
2023-04-03T19:03:53.723Z,65.7823
2023-04-03T19:04:57.246Z,65.8999
2023-04-03T19:05:56.089Z,65.9076
2023-04-03T19:06:58.335Z,66.1167
2023-04-03T19:08:00.591Z,66.2045
2023-04-03T19:09:04.580Z,66.3360
2023-04-03T19:10:04.923Z,66.2312
2023-04-03T19:11:07.197Z,66.2564
2023-04-03T19:12:10.141Z,66.2752
2023-04-03T19:13:12.389Z,66.1488
2023-04-03T19:14:16.540Z,66.2993
2023-04-03T19:15:15.727Z,66.3176
2023-04-03T19:16:18.663Z,66.3868
2023-04-03T19:17:21.102Z,66.4682
2023-04-03T19:18:23.352Z,66.6900
2023-04-03T19:19:25.997Z,66.6389
2023-04-03T19:20:28.459Z,66.7683
2023-04-03T19:21:30.839Z,66.8305
2023-04-03T19:22:33.142Z,67.0091
2023-04-03T19:23:35.379Z,67.1251
2023-04-03T19:24:38.172Z,67.0934
2023-04-03T19:25:40.589Z,67.0860
2023-04-03T19:26:44.809Z,67.0597
2023-04-03T19:27:43.672Z,67.1838
2023-04-03T19:28:45.991Z,67.0318
2023-04-03T19:29:49.025Z,67.2193
2023-04-03T19:30:51.590Z,67.2766
2023-04-03T19:31:53.901Z,67.2349
2023-04-03T19:32:56.172Z,67.3773
2023-04-03T19:33:58.481Z,67.3695
2023-04-03T19:35:00.753Z,67.3427
2023-04-03T19:36:03.205Z,67.1643
2023-04-03T19:37:03.605Z,67.1696
2023-04-03T19:38:07.562Z,66.9273